New River MCAS /H/ /Mccutcheon Fld/ Airport
KNCA : now visible

Airfield :











YOU CAN JOIN US ON...

 
LOGIN :

Register | Disclaimer

   EN    FR    IT 

 









Legend :    VFR   Marginal VFR   IFR   Intensive IFR   Very Intensive IFR
Visi :
Ceiling :
>= 8 km
>= 3000ft
5 to 8 km
1000 to 3000 ft
1500m to 5 km
500 to 1000 ft
800 to 1500m
200 to 500 ft
< 800m
< 200 ft
Symbols :   Thunderstorms  Fog  Heavy snow  Heavy precipitations  Wind > 20 kt






- Airport Elevation : 26 ft


KNCA - New River MCAS /H/ /Mccutcheon Fld/

CURRENT METAR :
  • 091456Z 03012KT 10SM SCT015 BKN027 OVC034 28/24 A2981 RMK AO2 DZE06 SLP098 P0000 60002 T02830239

EXPIRED METARs :
  • 091416Z 36010KT 10SM SCT017 BKN023 OVC045 27/24 A2981 RMK AO2 DZE06 P0000 T02670239
  • 091356Z 35007KT 5SM -DZ BR FEW010 SCT033 OVC040 26/24 A2981 RMK AO2 DZE24B39RAB24E39 SLP098 P0001 T02610244
  • 091339Z 36011KT 5SM -DZ BR SCT010 SCT013 OVC033 26/24 A2981 RMK AO2 DZE24B39RAB24E39 P0001 T02560239
  • 091326Z 36010KT 5SM -RA BR BKN010 BKN013 OVC035 26/24 A2981 RMK AO2 DZE24RAB24 CIG 006V011 P0000 T02560239
  • 091315Z 36011KT 5SM DZ BKN008 OVC012 25/24 A2981 RMK AO2 CIG 006V010 P0000 T02500239
  • 091256Z 36011KT 2 1/2SM DZ BR OVC008 25/23 A2981 RMK AO2 RAE1108B15E42DZB42 CIG 006V013 SLP098 P0001 T02500233
  • 091233Z 35009KT 2 1/2SM -RA BR BKN008 OVC018 25/23 A2981 RMK AO2 VIS 1 1/2V4 RAE1108B15 P0001 T02500233
  • 091219Z 35010KT 1 3/4SM -RA BR 25/23 A2980 RMK AO2 RAE1108B15 P0001 T02500233 $
  • 091156Z 35010KT 10SM SCT010 BKN050 26/24 A2980 RMK RAE1108 P0001 T02560239

TAF AMD TAF KNCA
Valid from the 09 at 11:00 until the 10 at 09:00 UTC


0911/1009 06006KT 6000 -RA BKN015 BKN030 QNH2977INS
TEMPO 0911/0915 BKN009
FM091800 36010KT 9999 BKN015 OVC030 QNH2977INS T29/0920Z T24/1009Z AMD 1134
KZDC FIR / North America



MET'MAP, your aeronautical weather chart ! - Copyright ORBIFLY December 2007 - Disclaimer

ORBIFLY MET'MAP TEAM :

Programming & Development : Alexandra Zaïnal
Concept & original design : Baudouin d'Aumeries
Assistance for programming : Marc-Olivier Méhu
Technical & hardware support : Manuel Goepfert

Contact : metmap@orbifly.com




SOURCES & CREDITS :

   NOAA       Earth
Advisory